Time;durP1;ratioP1;P1;durP2;ratioP2;P2;SDS_P1;SDS_P2;PMS_P1;PMS_P2;Temp;Humidity;BMP_temperature;BMP_pressure;BME280_temperature;BME280_humidity;BME280_pressure;Samples;Min_cycle;Max_cycle;Signal;HPM_P1;HPM_P2
2023/01/10 00:01:28;;;;;;;2.75;0.55;;;32.40;50.30;;;;;;5067914;28;20029;-67
2023/01/10 00:03:55;;;;;;;3.25;0.80;;;32.60;49.00;;;;;;5060468;28;20024;-69
2023/01/10 00:06:22;;;;;;;3.15;0.60;;;32.20;49.00;;;;;;5066780;28;20028;-68
2023/01/10 00:08:50;;;;;;;2.92;0.60;;;32.20;48.00;;;;;;5064735;28;20024;-67
2023/01/10 00:14:02;;;;;;;2.92;0.75;;;32.30;48.40;;;;;;5063602;28;20039;-65
2023/01/10 00:16:29;;;;;;;2.83;0.60;;;32.80;47.50;;;;;;5068164;28;20036;-67
2023/01/10 00:18:56;;;;;;;2.38;1.50;;;32.60;47.70;;;;;;5068181;28;20490;-70
2023/01/10 00:21:23;;;;;;;3.13;0.70;;;32.10;49.60;;;;;;5062146;28;20020;-67
2023/01/10 00:23:51;;;;;;;4.60;0.50;;;31.60;49.70;;;;;;5069329;28;20035;-66
2023/01/10 00:26:18;;;;;;;2.08;0.70;;;31.70;50.40;;;;;;5065986;28;20068;-67
2023/01/10 00:28:45;;;;;;;3.25;0.90;;;31.80;49.00;;;;;;5072056;28;20020;-67
2023/01/10 00:31:15;;;;;;;1.85;0.70;;;32.20;52.00;;;;;;5066674;28;20055;-68
2023/01/10 00:33:42;;;;;;;4.95;0.80;;;31.90;48.80;;;;;;5077718;28;20421;-67
2023/01/10 00:36:10;;;;;;;6.18;0.95;;;31.70;50.50;;;;;;5075005;28;20029;-69
2023/01/10 00:38:37;;;;;;;1.80;0.60;;;31.10;50.10;;;;;;5080271;28;20484;-67
2023/01/10 00:43:55;;;;;;;6.43;0.80;;;30.40;52.60;;;;;;5068753;28;20024;-67
2023/01/10 00:43:57;;;;;;;3.95;0.90;;;30.30;52.00;;;;;;5060417;28;20059;-66
2023/01/10 00:46:26;;;;;;;3.78;0.80;;;30.60;53.70;;;;;;5065683;28;20046;-67
2023/01/10 00:48:53;;;;;;;5.50;1.10;;;31.10;53.90;;;;;;5063750;28;20070;-67
2023/01/10 00:51:20;;;;;;;1.40;0.70;;;31.60;52.20;;;;;;5064486;28;20028;-66
2023/01/10 00:53:48;;;;;;;3.38;0.98;;;31.40;52.90;;;;;;5066576;28;20020;-67
2023/01/10 00:56:15;;;;;;;2.50;0.70;;;31.30;52.10;;;;;;5066889;28;20036;-67
2023/01/10 00:58:43;;;;;;;2.95;0.98;;;31.20;53.70;;;;;;5071843;28;20029;-66
2023/01/10 01:01:11;;;;;;;4.65;0.85;;;31.60;55.70;;;;;;5064420;28;20019;-67
2023/01/10 01:03:38;;;;;;;4.30;0.77;;;31.80;52.30;;;;;;5070536;28;20135;-67
2023/01/10 01:06:06;;;;;;;4.88;1.00;;;31.90;52.50;;;;;;5082614;28;20042;-66
2023/01/10 01:08:34;;;;;;;3.88;0.68;;;31.90;52.90;;;;;;5070895;28;20024;-66
2023/01/10 01:11:01;;;;;;;3.10;0.80;;;31.80;51.40;;;;;;5080218;28;20387;-66
2023/01/10 01:13:28;;;;;;;2.78;0.77;;;31.50;52.60;;;;;;5070717;28;20441;-67
2023/01/10 01:15:59;;;;;;;5.82;1.00;;;30.90;52.90;;;;;;5076789;28;20028;-67
2023/01/10 01:18:27;;;;;;;2.03;1.00;;;30.60;53.80;;;;;;5071638;28;20028;-67
2023/01/10 01:20:59;;;;;;;2.72;0.70;;;31.10;54.20;;;;;;5083549;28;20444;-67
2023/01/10 01:23:26;;;;;;;6.07;1.00;;;31.60;53.80;;;;;;5077108;28;20047;-67
2023/01/10 01:25:54;;;;;;;1.95;0.98;;;31.90;51.00;;;;;;5078701;28;20585;-67
2023/01/10 01:28:22;;;;;;;2.63;0.60;;;31.70;50.60;;;;;;5067265;28;20028;-68
2023/01/10 01:30:50;;;;;;;2.15;0.65;;;31.70;50.80;;;;;;5065032;28;20388;-68
2023/01/10 01:33:19;;;;;;;1.80;0.60;;;31.90;49.90;;;;;;5072026;28;20046;-68
2023/01/10 01:35:48;;;;;;;3.25;0.75;;;31.90;51.10;;;;;;5069996;28;20409;-67
2023/01/10 01:38:17;;;;;;;3.33;0.52;;;31.20;49.40;;;;;;5083594;28;20016;-68
2023/01/10 01:40:44;;;;;;;2.03;0.73;;;30.50;50.80;;;;;;5073635;28;20085;-67
2023/01/10 01:43:51;;;;;;;2.85;1.38;;;30.70;52.40;;;;;;5085126;28;20025;-67
2023/01/10 01:46:18;;;;;;;4.25;0.50;;;31.20;50.50;;;;;;5070067;28;20115;-68
2023/01/10 01:48:46;;;;;;;2.40;0.75;;;31.60;50.30;;;;;;5070486;28;20547;-68
2023/01/10 01:51:27;;;;;;;1.77;0.50;;;32.00;49.80;;;;;;5078864;28;20020;-68
2023/01/10 01:54:06;;;;;;;3.10;0.90;;;31.90;47.00;;;;;;5070985;28;20055;-69
2023/01/10 01:56:53;;;;;;;1.30;0.68;;;31.80;48.60;;;;;;5079292;28;20044;-67
2023/01/10 01:59:29;;;;;;;2.17;0.50;;;31.90;48.70;;;;;;5069373;28;20056;-68
2023/01/10 02:02:03;;;;;;;1.92;0.70;;;31.60;48.70;;;;;;5083930;28;20389;-67
2023/01/10 02:04:40;;;;;;;1.25;0.60;;;31.80;49.10;;;;;;5069712;28;20025;-68
2023/01/10 02:07:10;;;;;;;3.88;0.98;;;31.90;49.10;;;;;;5076080;28;20035;-66
2023/01/10 02:09:50;;;;;;;4.47;0.57;;;31.70;50.00;;;;;;5071332;28;20089;-66
2023/01/10 02:12:18;;;;;;;1.17;0.40;;;31.70;48.70;;;;;;5067608;28;20063;-66
2023/01/10 02:14:47;;;;;;;3.10;0.60;;;31.50;49.60;;;;;;5070681;28;20027;-65
2023/01/10 02:17:14;;;;;;;1.17;0.55;;;31.30;50.10;;;;;;5078704;28;20043;-65
2023/01/10 02:19:42;;;;;;;1.60;0.63;;;31.10;51.20;;;;;;5076907;28;20104;-67
2023/01/10 02:22:50;;;;;;;1.55;0.60;;;30.90;51.10;;;;;;5085224;28;20028;-67
2023/01/10 02:25:38;;;;;;;1.65;0.70;;;30.60;51.90;;;;;;5069212;28;20036;-66
2023/01/10 02:28:26;;;;;;;1.77;0.50;;;30.70;51.80;;;;;;5072868;28;20375;-66
2023/01/10 02:31:02;;;;;;;1.85;0.80;;;31.00;53.80;;;;;;5070428;28;20075;-67
2023/01/10 02:34:01;;;;;;;2.25;0.52;;;31.10;52.30;;;;;;5066517;28;20024;-67
2023/01/10 02:36:37;;;;;;;2.55;0.50;;;30.60;53.60;;;;;;5054276;28;20047;-67
2023/01/10 02:39:28;;;;;;;5.28;1.10;;;30.60;52.80;;;;;;5065606;28;20504;-67
2023/01/10 02:42:12;;;;;;;4.43;0.70;;;30.50;53.50;;;;;;5069364;28;20028;-69
2023/01/10 02:44:38;;;;;;;;;;;30.10;55.50;;;;;;5086924;28;20031;-69
2023/01/10 02:47:08;;;;;;;1.77;0.85;;;30.00;55.40;;;;;;5075540;28;19912;-69
2023/01/10 02:49:47;;;;;;;3.00;0.70;;;30.00;55.00;;;;;;5080768;28;20024;-69
2023/01/10 02:52:22;;;;;;;4.38;0.77;;;30.30;54.60;;;;;;5083914;28;20117;-69
2023/01/10 02:54:54;;;;;;;4.95;0.80;;;30.60;56.30;;;;;;5074340;28;20039;-70
2023/01/10 02:57:49;;;;;;;3.10;0.73;;;30.80;56.50;;;;;;5082687;28;20520;-69
2023/01/10 03:00:53;;;;;;;1.83;0.80;;;30.80;55.60;;;;;;5085152;28;20488;-70
2023/01/10 03:03:26;;;;;;;0.98;0.63;;;30.60;54.40;;;;;;5060706;28;20118;-69
2023/01/10 03:06:07;;;;;;;0.87;0.43;;;29.80;56.60;;;;;;5076748;28;20053;-69
2023/01/10 03:08:49;;;;;;;3.60;0.68;;;30.30;58.30;;;;;;5085970;28;20020;-69
2023/01/10 03:11:38;;;;;;;2.53;1.05;;;30.50;56.40;;;;;;5075955;28;20456;-69
2023/01/10 03:14:04;;;;;;;2.50;0.90;;;30.20;56.70;;;;;;5077114;28;20031;-68
2023/01/10 03:16:33;;;;;;;1.98;0.70;;;30.30;58.20;;;;;;5087846;28;20024;-66
2023/01/10 03:19:13;;;;;;;5.03;1.08;;;30.50;57.30;;;;;;5074744;28;20389;-66
2023/01/10 03:21:43;;;;;;;4.65;1.00;;;30.50;57.10;;;;;;5080400;28;20485;-67
2023/01/10 03:24:18;;;;;;;3.72;0.60;;;30.30;57.20;;;;;;5085172;28;20028;-67
2023/01/10 03:27:10;;;;;;;3.92;0.75;;;30.30;55.70;;;;;;5070987;28;20028;-66
2023/01/10 03:29:59;;;;;;;4.47;0.60;;;29.80;57.50;;;;;;5080724;28;20047;-66
2023/01/10 03:32:29;;;;;;;1.77;0.70;;;29.40;59.20;;;;;;5073650;28;20070;-66
2023/01/10 03:34:59;;;;;;;5.78;1.08;;;29.10;59.40;;;;;;5084742;28;20028;-66
2023/01/10 03:38:02;;;;;;;1.63;0.70;;;28.90;60.10;;;;;;5076981;28;20020;-67
2023/01/10 03:40:49;;;;;;;2.05;0.75;;;29.10;60.20;;;;;;5072212;28;20021;-66
2023/01/10 03:46:35;;;;;;;3.55;0.70;;;29.50;59.90;;;;;;5082475;28;20123;-67
2023/01/10 03:49:05;;;;;;;4.68;0.68;;;29.60;60.00;;;;;;5059410;28;20027;-66
2023/01/10 03:51:33;;;;;;;2.38;0.60;;;29.70;59.00;;;;;;5080856;28;20095;-66
2023/01/10 03:54:02;;;;;;;2.35;0.60;;;29.50;59.80;;;;;;5083393;28;20114;-67
2023/01/10 03:56:29;;;;;;;3.30;0.60;;;29.60;61.10;;;;;;5073900;28;20036;-67
2023/01/10 03:58:57;;;;;;;0.95;0.52;;;29.30;60.10;;;;;;5085595;28;20039;-67
2023/01/10 04:01:24;;;;;;;3.17;0.65;;;29.10;60.60;;;;;;5078077;28;20405;-67
2023/01/10 04:03:51;;;;;;;5.05;0.70;;;29.00;62.40;;;;;;5076621;28;20115;-66
2023/01/10 04:06:19;;;;;;;3.55;0.63;;;29.30;62.10;;;;;;5085377;28;20032;-66
2023/01/10 04:08:46;;;;;;;1.55;0.40;;;29.50;61.30;;;;;;5073143;28;20095;-66
2023/01/10 04:11:13;;;;;;;2.95;0.93;;;29.50;61.60;;;;;;5083350;28;20615;-67
2023/01/10 04:13:41;;;;;;;2.17;0.50;;;29.00;61.50;;;;;;5079781;28;20023;-67
2023/01/10 04:16:10;;;;;;;5.15;1.15;;;28.80;62.50;;;;;;5075360;28;20555;-66
2023/01/10 04:18:37;;;;;;;3.67;0.70;;;29.10;62.80;;;;;;5086449;28;20039;-66
2023/01/10 04:21:05;;;;;;;3.35;0.65;;;28.80;61.90;;;;;;5058631;28;20019;-66
2023/01/10 04:23:33;;;;;;;1.35;0.68;;;28.70;64.10;;;;;;5078000;28;20054;-64
2023/01/10 04:26:00;;;;;;;2.38;0.57;;;28.40;64.40;;;;;;5078813;28;20424;-66
2023/01/10 04:28:27;;;;;;;1.52;0.70;;;28.40;63.80;;;;;;5079317;28;20040;-65
2023/01/10 04:30:54;;;;;;;4.72;0.82;;;28.30;63.90;;;;;;5084152;28;20470;-66
2023/01/10 04:33:22;;;;;;;1.05;0.57;;;28.30;63.80;;;;;;5076985;28;20584;-66
2023/01/10 04:35:50;;;;;;;2.35;0.70;;;28.30;65.20;;;;;;5077058;28;20550;-66
2023/01/10 04:38:18;;;;;;;2.30;0.80;;;28.80;65.20;;;;;;5085213;28;20473;-66
2023/01/10 04:40:52;;;;;;;2.63;0.77;;;29.10;63.50;;;;;;5072798;28;20013;-65
2023/01/10 04:43:20;;;;;;;2.70;0.63;;;28.50;64.20;;;;;;5081489;28;20051;-66
2023/01/10 04:45:47;;;;;;;3.08;0.70;;;28.30;64.20;;;;;;5080749;28;20504;-67
2023/01/10 04:48:15;;;;;;;3.58;0.80;;;28.10;64.80;;;;;;5073907;28;20432;-66
2023/01/10 04:50:47;;;;;;;2.03;0.70;;;28.00;65.80;;;;;;5085496;28;20365;-66
2023/01/10 04:53:15;;;;;;;5.72;1.10;;;28.10;64.30;;;;;;5076342;28;20070;-66
2023/01/10 04:55:42;;;;;;;2.88;0.70;;;27.70;64.20;;;;;;5077937;28;20044;-66
2023/01/10 04:58:09;;;;;;;2.08;0.70;;;27.70;66.10;;;;;;5066822;28;20020;-66
2023/01/10 05:00:37;;;;;;;1.73;0.70;;;28.10;64.90;;;;;;5068186;28;20028;-66
2023/01/10 05:03:05;;;;;;;5.43;0.55;;;28.20;64.80;;;;;;5071724;28;20028;-66
2023/01/10 05:05:32;;;;;;;3.50;0.93;;;28.20;63.20;;;;;;5066531;28;20103;-67
2023/01/10 05:07:59;;;;;;;3.40;0.75;;;28.10;63.50;;;;;;5074890;28;20102;-66
2023/01/10 05:10:27;;;;;;;1.00;0.57;;;27.80;64.50;;;;;;5083658;28;20099;-66
2023/01/10 05:12:54;;;;;;;4.63;0.75;;;27.80;64.80;;;;;;5072787;28;20024;-66
2023/01/10 05:15:22;;;;;;;4.28;0.68;;;27.80;65.10;;;;;;5060185;28;20021;-64
2023/01/10 05:17:50;;;;;;;2.40;0.60;;;28.00;63.60;;;;;;5069928;28;20070;-65
2023/01/10 05:20:17;;;;;;;2.40;0.80;;;28.10;64.20;;;;;;5066026;28;20122;-65
2023/01/10 05:22:45;;;;;;;3.25;0.88;;;28.30;64.20;;;;;;5084005;28;20493;-65
2023/01/10 05:25:12;;;;;;;6.20;0.50;;;28.20;65.10;;;;;;5067384;28;20067;-65
2023/01/10 05:27:42;;;;;;;6.10;0.85;;;28.30;65.20;;;;;;5069397;28;20086;-65
2023/01/10 05:30:11;;;;;;;2.05;0.77;;;28.00;64.70;;;;;;5071332;28;20025;-65
2023/01/10 05:32:39;;;;;;;3.78;1.00;;;27.90;66.60;;;;;;5071926;28;20035;-66
2023/01/10 05:35:07;;;;;;;3.35;0.85;;;28.10;64.90;;;;;;5069280;28;20016;-65
2023/01/10 05:37:34;;;;;;;2.72;0.90;;;28.10;65.60;;;;;;5070610;28;20398;-66
2023/01/10 05:40:02;;;;;;;4.82;2.00;;;28.20;63.90;;;;;;5070995;28;20032;-66
2023/01/10 05:42:30;;;;;;;1.45;0.68;;;28.20;64.60;;;;;;5075871;28;20021;-67
2023/01/10 05:44:57;;;;;;;2.65;0.75;;;27.90;65.20;;;;;;5079705;28;20016;-65
2023/01/10 05:47:24;;;;;;;2.22;0.85;;;27.70;65.30;;;;;;5080211;28;20508;-65
2023/01/10 05:49:52;;;;;;;4.68;1.30;;;27.60;65.00;;;;;;5076207;28;20478;-65
2023/01/10 05:52:19;;;;;;;1.17;0.73;;;27.70;64.80;;;;;;5075216;28;20447;-65
2023/01/10 05:54:47;;;;;;;2.63;1.00;;;27.80;65.30;;;;;;5071669;28;20040;-66
2023/01/10 05:57:14;;;;;;;3.50;0.95;;;27.80;64.40;;;;;;5084403;28;20024;-66
2023/01/10 05:59:42;;;;;;;3.03;0.93;;;27.40;65.10;;;;;;5083294;28;20032;-65
2023/01/10 06:02:09;;;;;;;2.28;0.80;;;27.20;66.40;;;;;;5084015;28;20544;-66
2023/01/10 06:04:36;;;;;;;4.13;0.95;;;27.20;67.30;;;;;;5070713;28;20028;-66
2023/01/10 06:07:04;;;;;;;4.63;0.95;;;27.50;66.40;;;;;;5065128;28;20087;-67
2023/01/10 06:09:31;;;;;;;2.40;0.80;;;27.70;66.40;;;;;;5063039;28;20029;-66
2023/01/10 06:11:59;;;;;;;2.60;0.82;;;27.30;67.80;;;;;;5064342;28;20040;-66
2023/01/10 06:14:26;;;;;;;3.63;0.90;;;27.10;68.60;;;;;;5067202;28;20066;-66
2023/01/10 06:16:54;;;;;;;3.78;0.77;;;26.90;70.70;;;;;;5061708;28;20035;-66
2023/01/10 06:19:21;;;;;;;4.60;1.27;;;26.80;71.90;;;;;;5065773;28;20029;-65
2023/01/10 06:21:49;;;;;;;1.20;0.70;;;26.60;71.90;;;;;;5065364;28;20036;-66
2023/01/10 06:24:16;;;;;;;3.38;0.90;;;26.50;71.60;;;;;;5065571;28;20024;-65
2023/01/10 06:26:43;;;;;;;5.90;1.55;;;26.60;72.20;;;;;;5070630;28;20028;-65
2023/01/10 06:29:11;;;;;;;2.65;0.80;;;26.80;71.10;;;;;;5071020;28;20397;-66
2023/01/10 06:31:38;;;;;;;7.30;1.10;;;26.90;70.70;;;;;;5069909;28;20052;-65
2023/01/10 06:34:06;;;;;;;2.67;0.90;;;26.80;71.60;;;;;;5064810;28;20028;-66
2023/01/10 06:36:33;;;;;;;3.22;0.70;;;26.60;72.70;;;;;;5066848;28;20035;-68
2023/01/10 06:39:01;;;;;;;1.63;0.60;;;26.30;74.60;;;;;;5063749;28;20732;-67
2023/01/10 06:41:29;;;;;;;3.25;0.60;;;26.00;75.30;;;;;;5065838;28;20416;-66
2023/01/10 06:43:56;;;;;;;4.78;0.70;;;25.70;75.80;;;;;;5063074;28;20027;-65
2023/01/10 06:46:24;;;;;;;4.40;1.00;;;25.60;77.30;;;;;;5069460;28;20043;-66
2023/01/10 06:48:51;;;;;;;1.00;0.40;;;25.80;76.90;;;;;;5065635;28;20575;-66
2023/01/10 06:51:19;;;;;;;2.50;0.60;;;26.00;76.40;;;;;;5078337;28;20372;-66
2023/01/10 06:53:46;;;;;;;1.38;0.40;;;25.90;77.00;;;;;;5070199;28;20443;-65
2023/01/10 06:56:14;;;;;;;1.45;0.55;;;26.00;77.80;;;;;;5071924;28;20047;-65
2023/01/10 06:58:41;;;;;;;3.42;0.70;;;26.20;76.20;;;;;;5071782;28;21574;-65
2023/01/10 07:01:17;;;;;;;1.75;0.40;;;26.10;76.50;;;;;;5073444;28;20114;-66
2023/01/10 07:03:45;;;;;;;2.72;0.60;;;25.90;76.60;;;;;;5073040;28;20036;-65
2023/01/10 07:06:13;;;;;;;2.72;0.60;;;25.90;76.50;;;;;;5076935;28;20033;-65
2023/01/10 07:08:43;;;;;;;2.53;0.68;;;25.90;77.00;;;;;;5076999;28;20036;-66
2023/01/10 07:11:12;;;;;;;1.35;0.52;;;26.20;75.90;;;;;;5061280;28;20039;-66
2023/01/10 07:13:40;;;;;;;2.67;0.55;;;26.10;76.30;;;;;;5076569;28;20027;-67
2023/01/10 07:16:10;;;;;;;1.75;0.50;;;26.30;74.90;;;;;;5077029;28;20052;-67
2023/01/10 07:18:40;;;;;;;5.10;0.52;;;26.40;74.40;;;;;;5080685;28;20047;-66
2023/01/10 07:21:09;;;;;;;2.95;1.15;;;26.30;75.00;;;;;;5075549;28;20048;-67
2023/01/10 07:23:37;;;;;;;6.47;0.70;;;25.90;76.30;;;;;;5081370;28;20032;-67
2023/01/10 07:26:06;;;;;;;2.65;0.40;;;25.60;77.50;;;;;;5076441;28;20032;-67
2023/01/10 07:28:34;;;;;;;1.20;0.35;;;25.60;76.80;;;;;;5071258;28;20016;-68
2023/01/10 07:31:04;;;;;;;4.05;0.88;;;25.70;77.90;;;;;;5076059;28;20108;-68
2023/01/10 07:33:31;;;;;;;6.32;1.17;;;25.60;78.80;;;;;;5068996;28;20040;-66
2023/01/10 07:36:01;;;;;;;1.05;0.50;;;25.50;78.40;;;;;;5070639;28;20064;-67
2023/01/10 07:38:29;;;;;;;4.68;0.93;;;25.40;79.80;;;;;;5081484;28;20477;-68
2023/01/10 07:40:56;;;;;;;3.10;0.60;;;25.30;79.70;;;;;;5068400;28;20099;-69
2023/01/10 07:43:24;;;;;;;2.35;0.70;;;25.50;78.30;;;;;;5075944;28;20024;-67
2023/01/10 07:45:51;;;;;;;2.83;0.55;;;25.40;78.40;;;;;;5070077;28;20799;-66
2023/01/10 07:48:19;;;;;;;4.53;0.45;;;25.30;79.40;;;;;;5066506;28;20036;-67
2023/01/10 07:50:46;;;;;;;4.90;0.57;;;25.30;79.90;;;;;;5074589;28;20089;-67
2023/01/10 07:53:13;;;;;;;5.15;0.55;;;25.30;79.70;;;;;;5076189;28;20028;-68
2023/01/10 07:55:42;;;;;;;2.13;0.50;;;25.00;79.90;;;;;;5077527;28;20058;-67
2023/01/10 07:58:09;;;;;;;1.15;0.38;;;24.90;80.70;;;;;;5068556;28;20032;-65
2023/01/10 08:00:37;;;;;;;3.30;0.88;;;24.50;81.40;;;;;;5069096;28;20448;-68
2023/01/10 08:03:05;;;;;;;4.95;0.65;;;24.40;83.30;;;;;;5066520;28;20020;-68
2023/01/10 08:05:33;;;;;;;3.03;0.70;;;24.10;85.00;;;;;;5065323;28;20119;-67
2023/01/10 08:08:08;;;;;;;0.95;0.40;;;23.90;87.20;;;;;;5067781;28;20063;-66
2023/01/10 08:10:36;;;;;;;4.50;0.70;;;23.90;88.50;;;;;;5068534;28;20028;-68
2023/01/10 08:13:04;;;;;;;3.50;0.82;;;23.80;89.30;;;;;;5072176;28;20073;-69
2023/01/10 08:15:32;;;;;;;1.38;0.47;;;23.80;90.00;;;;;;5065505;28;20025;-69
2023/01/10 08:18:02;;;;;;;2.70;0.63;;;23.70;90.30;;;;;;5063945;28;20114;-67
2023/01/10 08:20:30;;;;;;;1.52;0.40;;;23.60;90.50;;;;;;5068193;28;20422;-68
2023/01/10 08:22:58;;;;;;;2.40;0.52;;;23.50;90.90;;;;;;5076327;28;20028;-66
2023/01/10 08:25:26;;;;;;;4.85;0.57;;;23.40;91.60;;;;;;5067781;28;20115;-68
2023/01/10 08:27:53;;;;;;;2.05;0.60;;;23.30;92.50;;;;;;5066833;28;20032;-68
2023/01/10 08:30:22;;;;;;;2.72;0.40;;;23.20;92.90;;;;;;5065281;28;20028;-68
2023/01/10 08:32:51;;;;;;;3.92;1.65;;;23.10;92.90;;;;;;5064342;28;20032;-70
2023/01/10 08:35:18;;;;;;;3.22;0.43;;;23.00;93.10;;;;;;5066126;28;20139;-68
2023/01/10 08:37:46;;;;;;;1.92;0.60;;;22.90;93.20;;;;;;5063885;28;20241;-69
2023/01/10 08:40:14;;;;;;;3.65;0.70;;;22.80;93.50;;;;;;5063555;28;20063;-72
2023/01/10 08:42:41;;;;;;;3.70;1.27;;;22.70;94.10;;;;;;5067137;28;20044;-72
2023/01/10 08:45:09;;;;;;;3.08;0.50;;;22.60;94.40;;;;;;5062567;28;20428;-70
2023/01/10 08:47:36;;;;;;;4.95;0.50;;;22.50;94.60;;;;;;5074984;28;20071;-69
2023/01/10 08:50:04;;;;;;;6.90;1.92;;;22.40;94.80;;;;;;5065896;28;20028;-69
2023/01/10 08:52:32;;;;;;;3.28;0.65;;;22.40;95.00;;;;;;5065262;28;20393;-70
2023/01/10 08:54:59;;;;;;;2.60;0.60;;;22.20;95.20;;;;;;5063422;28;20037;-70
2023/01/10 08:57:27;;;;;;;4.22;0.85;;;22.20;95.80;;;;;;5068877;28;20035;-73
2023/01/10 08:59:54;;;;;;;1.38;0.40;;;22.00;96.10;;;;;;5065589;28;20051;-71
2023/01/10 09:02:21;;;;;;;1.67;0.60;;;21.90;96.30;;;;;;5063692;28;20031;-71
2023/01/10 09:04:49;;;;;;;3.63;0.77;;;21.80;96.70;;;;;;5074044;28;20486;-66
2023/01/10 09:07:16;;;;;;;0.98;0.47;;;21.70;97.20;;;;;;5065708;28;20070;-68
2023/01/10 09:09:44;;;;;;;4.55;0.60;;;21.70;97.60;;;;;;5065435;28;20039;-68
2023/01/10 09:14:57;;;;;;;1.83;0.47;;;21.40;98.60;;;;;;5064056;28;20026;-68
2023/01/10 09:17:24;;;;;;;3.40;0.63;;;21.40;98.90;;;;;;5070952;28;20107;-67
2023/01/10 09:19:52;;;;;;;4.13;0.77;;;21.30;99.30;;;;;;5065376;28;20118;-67
2023/01/10 09:22:19;;;;;;;7.15;0.60;;;21.20;99.90;;;;;;5065658;28;20370;-67
2023/01/10 09:24:47;;;;;;;2.85;0.90;;;21.10;99.90;;;;;;5064279;28;20400;-67
2023/01/10 09:27:14;;;;;;;2.20;0.65;;;21.00;99.90;;;;;;5071295;28;20411;-69
2023/01/10 09:29:41;;;;;;;3.75;0.70;;;21.00;99.90;;;;;;5064740;28;20428;-66
2023/01/10 09:32:09;;;;;;;2.47;0.68;;;20.90;99.90;;;;;;5063820;28;20512;-68
2023/01/10 09:34:36;;;;;;;2.33;0.70;;;20.90;99.90;;;;;;5057111;28;20067;-67
2023/01/10 09:37:04;;;;;;;3.25;0.98;;;20.90;99.90;;;;;;5065246;28;20527;-67
2023/01/10 09:39:32;;;;;;;2.45;0.57;;;20.90;99.90;;;;;;5062687;28;20032;-71
2023/01/10 09:42:28;;;;;;;4.05;0.55;;;20.80;99.90;;;;;;5075646;28;20401;-73
2023/01/10 09:44:56;;;;;;;1.50;0.68;;;20.80;99.90;;;;;;5055335;28;20056;-72
2023/01/10 09:47:32;;;;;;;2.15;0.60;;;20.80;99.90;;;;;;5070687;28;20040;-68
2023/01/10 09:50:22;;;;;;;1.77;0.57;;;20.80;99.90;;;;;;5065204;28;20036;-68
2023/01/10 09:53:19;;;;;;;5.22;0.60;;;20.80;99.90;;;;;;5068187;28;20123;-71
2023/01/10 09:55:57;;;;;;;3.50;0.65;;;20.80;99.90;;;;;;5066767;28;20045;-68
2023/01/10 09:58:31;;;;;;;1.30;0.60;;;20.80;99.90;;;;;;5067444;28;20739;-70
2023/01/10 10:01:05;;;;;;;1.10;0.50;;;20.70;99.90;;;;;;5067094;28;20017;-70
2023/01/10 10:04:09;;;;;;;3.38;0.98;;;20.70;99.90;;;;;;5065068;28;20058;-66
2023/01/10 10:06:36;;;;;;;2.92;0.68;;;20.60;99.90;;;;;;5064750;28;20489;-72
2023/01/10 10:09:04;;;;;;;5.00;0.98;;;20.60;99.90;;;;;;5067295;28;20040;-75
2023/01/10 10:12:03;;;;;;;1.73;0.60;;;20.50;99.90;;;;;;5066581;28;20948;-68
2023/01/10 10:14:43;;;;;;;3.40;0.77;;;20.40;99.90;;;;;;5052914;28;20044;-70
2023/01/10 10:17:32;;;;;;;6.78;0.73;;;20.40;99.90;;;;;;5067221;28;20073;-76
2023/01/10 10:20:43;;;;;;;3.35;0.50;;;20.30;99.90;;;;;;5071150;28;20570;-73
2023/01/10 10:23:41;;;;;;;3.25;0.60;;;20.30;99.90;;;;;;5051635;28;20044;-71
2023/01/10 10:26:33;;;;;;;6.50;0.70;;;20.30;99.90;;;;;;5067553;28;20040;-74
2023/01/10 10:29:13;;;;;;;2.30;0.52;;;20.20;99.90;;;;;;5067698;28;20561;-75
2023/01/10 10:32:12;;;;;;;4.40;1.38;;;20.10;99.90;;;;;;5067088;28;20020;-70
2023/01/10 10:35:02;;;;;;;3.58;0.60;;;20.00;99.90;;;;;;5055881;28;20044;-71
2023/01/10 10:37:43;;;;;;;2.10;0.57;;;19.90;99.90;;;;;;5067737;28;20032;-79
2023/01/10 10:40:27;;;;;;;2.28;0.55;;;19.90;99.90;;;;;;5076112;28;20047;-78
2023/01/10 10:42:58;;;;;;;3.22;0.60;;;19.90;99.90;;;;;;5064363;28;20067;-73
2023/01/10 10:46:12;;;;;;;5.10;0.95;;;19.90;99.90;;;;;;5065557;28;20082;-77
2023/01/10 10:48:56;;;;;;;11.43;1.08;;;19.90;99.90;;;;;;5040291;28;20045;-76
2023/01/10 10:51:36;;;;;;;4.55;1.50;;;19.90;99.90;;;;;;5040869;28;20036;-77
2023/01/10 10:54:05;;;;;;;2.28;0.57;;;19.90;99.90;;;;;;5060301;28;20044;-70
2023/01/10 10:56:33;;;;;;;5.50;1.25;;;19.80;99.90;;;;;;5066323;28;20127;-71
2023/01/10 10:59:00;;;;;;;8.18;1.05;;;19.80;99.90;;;;;;5069170;28;20024;-71
2023/01/10 11:01:28;;;;;;;4.13;0.50;;;19.90;99.90;;;;;;5067265;28;20020;-71
2023/01/10 11:04:00;;;;;;;7.22;1.80;;;19.80;99.90;;;;;;5068750;28;20482;-71
2023/01/10 11:06:30;;;;;;;4.68;1.02;;;19.80;99.90;;;;;;5060715;28;20167;-71
2023/01/10 11:09:02;;;;;;;4.30;0.80;;;19.70;99.90;;;;;;5069488;28;20032;-69
2023/01/10 11:11:40;;;;;;;2.60;0.70;;;19.60;99.90;;;;;;5071402;28;20150;-69
2023/01/10 11:14:08;;;;;;;1.23;0.60;;;19.60;99.90;;;;;;5071138;28;20066;-70
2023/01/10 11:16:46;;;;;;;5.47;0.50;;;19.50;99.90;;;;;;5071272;28;20063;-68
2023/01/10 11:19:16;;;;;;;2.38;0.73;;;19.40;99.90;;;;;;5070804;28;20466;-69
2023/01/10 11:22:05;;;;;;;3.55;1.02;;;19.40;99.90;;;;;;5071475;28;20393;-70
2023/01/10 11:24:37;;;;;;;4.07;0.90;;;19.40;99.90;;;;;;5070125;28;20036;-69
2023/01/10 11:27:41;;;;;;;5.30;1.65;;;19.40;99.90;;;;;;5070910;28;20040;-69
2023/01/10 11:30:16;;;;;;;1.65;0.57;;;19.40;99.90;;;;;;5071001;28;20028;-69
2023/01/10 11:33:18;;;;;;;5.60;0.90;;;19.40;99.90;;;;;;5070603;28;20551;-70
2023/01/10 11:36:02;;;;;;;2.05;0.88;;;19.40;99.90;;;;;;5070366;28;20111;-70
2023/01/10 11:38:30;;;;;;;2.88;0.57;;;19.50;99.90;;;;;;5068169;28;20020;-70
2023/01/10 11:41:26;;;;;;;5.15;0.70;;;19.50;99.90;;;;;;5068986;28;20064;-70
2023/01/10 11:44:13;;;;;;;3.25;0.88;;;19.70;99.90;;;;;;5054722;28;20021;-70
2023/01/10 11:46:44;;;;;;;3.20;0.60;;;19.70;99.90;;;;;;5060644;28;20159;-70
2023/01/10 11:49:19;;;;;;;3.22;0.80;;;19.80;99.90;;;;;;5070238;28;20016;-69
2023/01/10 11:51:51;;;;;;;5.07;0.95;;;19.80;99.90;;;;;;5070354;28;20604;-69
2023/01/10 11:54:27;;;;;;;2.97;0.63;;;19.90;99.90;;;;;;5069343;28;20085;-70
2023/01/10 11:57:09;;;;;;;3.10;0.90;;;19.90;99.90;;;;;;5062016;28;20501;-70
2023/01/10 11:59:38;;;;;;;4.32;0.93;;;20.00;99.90;;;;;;5067546;28;20037;-69
2023/01/10 12:02:11;;;;;;;1.75;0.57;;;20.00;99.90;;;;;;5069429;28;20023;-69
2023/01/10 12:04:46;;;;;;;1.85;0.80;;;20.10;99.90;;;;;;5068099;28;20059;-69
2023/01/10 12:07:14;;;;;;;3.33;1.00;;;20.10;99.90;;;;;;5067164;28;20125;-69
2023/01/10 12:09:59;;;;;;;5.05;1.20;;;20.10;99.90;;;;;;5064600;28;20369;-69
2023/01/10 12:12:32;;;;;;;4.03;0.90;;;20.10;99.90;;;;;;5066547;28;20029;-70
2023/01/10 12:15:19;;;;;;;5.32;0.70;;;20.10;99.90;;;;;;5050501;28;20029;-69
2023/01/10 12:17:46;;;;;;;2.83;1.17;;;20.10;99.90;;;;;;5064069;28;20023;-71
2023/01/10 12:20:15;;;;;;;2.97;0.88;;;20.20;99.90;;;;;;5069601;28;20162;-68
2023/01/10 12:22:49;;;;;;;2.03;0.60;;;20.20;99.90;;;;;;5068806;28;20497;-69
2023/01/10 12:25:39;;;;;;;1.67;0.63;;;20.30;99.90;;;;;;5069822;28;20024;-69
2023/01/10 12:28:24;;;;;;;6.65;0.77;;;20.30;99.90;;;;;;5068007;28;20032;-69
2023/01/10 12:30:54;;;;;;;4.93;0.90;;;20.40;99.90;;;;;;5069622;28;20027;-69
2023/01/10 12:33:31;;;;;;;5.82;0.75;;;20.50;99.90;;;;;;5069661;28;20020;-70
2023/01/10 12:36:22;;;;;;;4.60;0.77;;;20.50;99.90;;;;;;5069391;28;20054;-69
2023/01/10 12:39:02;;;;;;;2.83;0.80;;;20.60;99.90;;;;;;5068941;28;20576;-69
2023/01/10 12:44:45;;;;;;;6.78;1.25;;;20.60;99.90;;;;;;5053782;28;20113;-69
2023/01/10 12:47:12;;;;;;;2.63;0.80;;;20.70;99.90;;;;;;5069018;28;20039;-70
2023/01/10 12:49:48;;;;;;;3.47;1.13;;;20.70;99.90;;;;;;5068482;28;20047;-69
2023/01/10 12:52:48;;;;;;;2.50;0.88;;;20.70;99.90;;;;;;5068973;28;20020;-70
2023/01/10 12:55:24;;;;;;;4.20;0.85;;;20.70;99.90;;;;;;5067921;28;20047;-69
2023/01/10 12:57:55;;;;;;;3.70;0.90;;;20.70;99.90;;;;;;5068978;28;20024;-68
2023/01/10 13:00:39;;;;;;;6.32;1.02;;;20.70;99.90;;;;;;5069266;28;20045;-70
2023/01/10 13:03:18;;;;;;;3.35;0.70;;;20.70;99.90;;;;;;5067638;28;20028;-68
2023/01/10 13:05:48;;;;;;;2.00;0.80;;;20.70;99.90;;;;;;5068889;28;20039;-69
2023/01/10 13:08:20;;;;;;;3.45;0.70;;;20.70;99.90;;;;;;5068777;28;20056;-69
2023/01/10 13:10:50;;;;;;;8.10;1.10;;;20.70;99.90;;;;;;5068562;28;20071;-69
2023/01/10 13:13:35;;;;;;;2.90;0.80;;;20.60;99.90;;;;;;5068652;28;20451;-69
2023/01/10 13:16:16;;;;;;;3.55;1.05;;;20.60;99.90;;;;;;5069652;28;20016;-68
2023/01/10 13:19:21;;;;;;;2.40;0.70;;;20.50;99.90;;;;;;5068779;28;20587;-69
2023/01/10 13:21:51;;;;;;;3.78;0.73;;;20.50;99.90;;;;;;5069364;28;20116;-69
2023/01/10 13:24:26;;;;;;;3.50;0.70;;;20.50;99.90;;;;;;5068635;28;20123;-70
2023/01/10 13:27:01;;;;;;;4.53;1.08;;;20.50;99.90;;;;;;5069097;28;20044;-69
2023/01/10 13:29:40;;;;;;;3.30;0.90;;;20.50;99.90;;;;;;5068219;28;20032;-71